sensor_id;sensor_type;location;lat;lon;timestamp;P1;durP1;ratioP1;P2;durP2;ratioP2
43337;SDS011;28933;52.492;13.434;2022-09-27T00:00:39;3.95;;;1.95;;
43337;SDS011;28933;52.492;13.434;2022-09-27T00:03:11;6.80;;;2.90;;
43337;SDS011;28933;52.492;13.434;2022-09-27T00:05:37;4.50;;;2.78;;
43337;SDS011;28933;52.492;13.434;2022-09-27T00:08:03;5.13;;;2.88;;
43337;SDS011;28933;52.492;13.434;2022-09-27T00:10:29;3.58;;;1.83;;
43337;SDS011;28933;52.492;13.434;2022-09-27T00:12:55;3.70;;;2.35;;
43337;SDS011;28933;52.492;13.434;2022-09-27T00:15:21;4.07;;;2.95;;
43337;SDS011;28933;52.492;13.434;2022-09-27T00:17:47;6.43;;;3.05;;
43337;SDS011;28933;52.492;13.434;2022-09-27T00:20:16;8.57;;;4.05;;
43337;SDS011;28933;52.492;13.434;2022-09-27T00:22:43;5.22;;;2.67;;
43337;SDS011;28933;52.492;13.434;2022-09-27T00:25:08;4.43;;;2.78;;
43337;SDS011;28933;52.492;13.434;2022-09-27T00:27:34;4.95;;;2.53;;
43337;SDS011;28933;52.492;13.434;2022-09-27T00:29:59;5.38;;;3.05;;
43337;SDS011;28933;52.492;13.434;2022-09-27T00:32:25;6.25;;;3.50;;
43337;SDS011;28933;52.492;13.434;2022-09-27T00:34:51;4.88;;;2.15;;
43337;SDS011;28933;52.492;13.434;2022-09-27T00:37:16;2.95;;;1.75;;
43337;SDS011;28933;52.492;13.434;2022-09-27T00:39:42;4.95;;;3.20;;
43337;SDS011;28933;52.492;13.434;2022-09-27T00:42:09;3.47;;;2.00;;
43337;SDS011;28933;52.492;13.434;2022-09-27T00:52:27;5.43;;;3.22;;
43337;SDS011;28933;52.492;13.434;2022-09-27T00:54:59;3.25;;;1.90;;
43337;SDS011;28933;52.492;13.434;2022-09-27T00:57:32;2.80;;;1.85;;
43337;SDS011;28933;52.492;13.434;2022-09-27T01:00:06;3.10;;;2.13;;
43337;SDS011;28933;52.492;13.434;2022-09-27T01:02:34;2.70;;;2.30;;
43337;SDS011;28933;52.492;13.434;2022-09-27T01:05:04;5.80;;;4.10;;
43337;SDS011;28933;52.492;13.434;2022-09-27T01:07:33;4.95;;;3.75;;
43337;SDS011;28933;52.492;13.434;2022-09-27T01:09:59;3.78;;;2.53;;
43337;SDS011;28933;52.492;13.434;2022-09-27T01:15:12;5.15;;;2.78;;
43337;SDS011;28933;52.492;13.434;2022-09-27T01:20:54;3.17;;;1.90;;
43337;SDS011;28933;52.492;13.434;2022-09-27T01:29:12;6.20;;;3.90;;
43337;SDS011;28933;52.492;13.434;2022-09-27T01:40:08;4.63;;;2.22;;
43337;SDS011;28933;52.492;13.434;2022-09-27T01:43:09;4.30;;;2.25;;
43337;SDS011;28933;52.492;13.434;2022-09-27T01:45:57;3.10;;;2.13;;
43337;SDS011;28933;52.492;13.434;2022-09-27T01:48:30;4.43;;;2.47;;
43337;SDS011;28933;52.492;13.434;2022-09-27T01:51:09;3.70;;;2.42;;
43337;SDS011;28933;52.492;13.434;2022-09-27T01:54:01;3.28;;;1.85;;
43337;SDS011;28933;52.492;13.434;2022-09-27T01:56:36;3.45;;;2.50;;
43337;SDS011;28933;52.492;13.434;2022-09-27T02:01:44;3.97;;;1.90;;
43337;SDS011;28933;52.492;13.434;2022-09-27T02:04:13;3.88;;;2.03;;
43337;SDS011;28933;52.492;13.434;2022-09-27T02:06:44;3.10;;;2.50;;
43337;SDS011;28933;52.492;13.434;2022-09-27T02:09:22;5.35;;;2.22;;
43337;SDS011;28933;52.492;13.434;2022-09-27T02:12:04;2.60;;;1.83;;
43337;SDS011;28933;52.492;13.434;2022-09-27T02:14:34;2.38;;;1.75;;
43337;SDS011;28933;52.492;13.434;2022-09-27T02:17:07;2.78;;;1.95;;
43337;SDS011;28933;52.492;13.434;2022-09-27T02:19:51;4.18;;;1.95;;
43337;SDS011;28933;52.492;13.434;2022-09-27T02:22:38;3.22;;;1.77;;
43337;SDS011;28933;52.492;13.434;2022-09-27T02:28:27;3.03;;;2.03;;
43337;SDS011;28933;52.492;13.434;2022-09-27T02:30:57;3.10;;;2.00;;
43337;SDS011;28933;52.492;13.434;2022-09-27T02:36:24;2.47;;;1.75;;
43337;SDS011;28933;52.492;13.434;2022-09-27T02:38:49;2.85;;;2.15;;
43337;SDS011;28933;52.492;13.434;2022-09-27T02:41:17;2.40;;;1.83;;
43337;SDS011;28933;52.492;13.434;2022-09-27T02:43:46;2.40;;;1.60;;
43337;SDS011;28933;52.492;13.434;2022-09-27T02:46:23;3.03;;;2.00;;
43337;SDS011;28933;52.492;13.434;2022-09-27T02:52:29;4.65;;;2.28;;
43337;SDS011;28933;52.492;13.434;2022-09-27T03:00:20;2.17;;;1.60;;
43337;SDS011;28933;52.492;13.434;2022-09-27T03:02:58;4.00;;;1.73;;
43337;SDS011;28933;52.492;13.434;2022-09-27T03:08:35;3.75;;;2.00;;
43337;SDS011;28933;52.492;13.434;2022-09-27T03:11:02;2.88;;;1.83;;
43337;SDS011;28933;52.492;13.434;2022-09-27T03:13:29;2.85;;;2.10;;
43337;SDS011;28933;52.492;13.434;2022-09-27T03:15:55;3.05;;;2.00;;
43337;SDS011;28933;52.492;13.434;2022-09-27T03:18:21;4.20;;;2.25;;
43337;SDS011;28933;52.492;13.434;2022-09-27T03:20:47;4.03;;;2.22;;
43337;SDS011;28933;52.492;13.434;2022-09-27T03:23:14;3.30;;;1.77;;
43337;SDS011;28933;52.492;13.434;2022-09-27T03:25:39;2.95;;;1.75;;
43337;SDS011;28933;52.492;13.434;2022-09-27T03:28:05;4.28;;;2.10;;
43337;SDS011;28933;52.492;13.434;2022-09-27T03:30:31;1.98;;;1.52;;
43337;SDS011;28933;52.492;13.434;2022-09-27T03:32:56;3.60;;;1.83;;
43337;SDS011;28933;52.492;13.434;2022-09-27T03:35:22;3.28;;;1.80;;
43337;SDS011;28933;52.492;13.434;2022-09-27T03:37:48;3.35;;;2.42;;
43337;SDS011;28933;52.492;13.434;2022-09-27T03:40:14;4.35;;;1.90;;
43337;SDS011;28933;52.492;13.434;2022-09-27T03:42:39;3.20;;;2.10;;
43337;SDS011;28933;52.492;13.434;2022-09-27T03:45:05;4.00;;;1.80;;
43337;SDS011;28933;52.492;13.434;2022-09-27T03:47:31;5.13;;;2.15;;
43337;SDS011;28933;52.492;13.434;2022-09-27T03:49:57;3.22;;;2.00;;
43337;SDS011;28933;52.492;13.434;2022-09-27T03:52:22;5.18;;;2.03;;
43337;SDS011;28933;52.492;13.434;2022-09-27T03:54:48;6.07;;;1.92;;
43337;SDS011;28933;52.492;13.434;2022-09-27T03:57:13;3.10;;;2.20;;
43337;SDS011;28933;52.492;13.434;2022-09-27T03:59:39;3.38;;;1.80;;
43337;SDS011;28933;52.492;13.434;2022-09-27T04:02:05;5.03;;;2.05;;
43337;SDS011;28933;52.492;13.434;2022-09-27T04:04:31;3.55;;;2.15;;
43337;SDS011;28933;52.492;13.434;2022-09-27T04:06:56;2.90;;;1.90;;
43337;SDS011;28933;52.492;13.434;2022-09-27T04:09:23;3.28;;;2.13;;
43337;SDS011;28933;52.492;13.434;2022-09-27T04:11:49;2.85;;;1.95;;
43337;SDS011;28933;52.492;13.434;2022-09-27T04:14:14;2.35;;;1.65;;
43337;SDS011;28933;52.492;13.434;2022-09-27T04:16:40;3.63;;;1.90;;
43337;SDS011;28933;52.492;13.434;2022-09-27T04:19:06;3.35;;;2.00;;
43337;SDS011;28933;52.492;13.434;2022-09-27T04:21:32;4.38;;;2.25;;
43337;SDS011;28933;52.492;13.434;2022-09-27T04:23:59;3.20;;;2.05;;
43337;SDS011;28933;52.492;13.434;2022-09-27T04:26:24;2.45;;;1.92;;
43337;SDS011;28933;52.492;13.434;2022-09-27T04:28:51;3.88;;;1.92;;
43337;SDS011;28933;52.492;13.434;2022-09-27T04:31:17;4.70;;;2.00;;
43337;SDS011;28933;52.492;13.434;2022-09-27T04:33:43;2.70;;;1.88;;
43337;SDS011;28933;52.492;13.434;2022-09-27T04:36:11;2.60;;;2.08;;
43337;SDS011;28933;52.492;13.434;2022-09-27T04:38:52;4.25;;;2.20;;
43337;SDS011;28933;52.492;13.434;2022-09-27T04:41:22;3.78;;;2.03;;
43337;SDS011;28933;52.492;13.434;2022-09-27T04:43:52;5.90;;;2.20;;
43337;SDS011;28933;52.492;13.434;2022-09-27T04:46:19;3.88;;;2.10;;
43337;SDS011;28933;52.492;13.434;2022-09-27T04:48:46;3.80;;;2.25;;
43337;SDS011;28933;52.492;13.434;2022-09-27T04:51:12;2.85;;;1.90;;
43337;SDS011;28933;52.492;13.434;2022-09-27T04:53:41;5.25;;;2.05;;
43337;SDS011;28933;52.492;13.434;2022-09-27T04:56:10;6.57;;;2.85;;
43337;SDS011;28933;52.492;13.434;2022-09-27T04:58:36;3.00;;;1.75;;
43337;SDS011;28933;52.492;13.434;2022-09-27T05:01:03;2.88;;;2.10;;
43337;SDS011;28933;52.492;13.434;2022-09-27T05:03:29;3.05;;;2.42;;
43337;SDS011;28933;52.492;13.434;2022-09-27T05:05:56;3.00;;;2.03;;
43337;SDS011;28933;52.492;13.434;2022-09-27T05:08:22;3.17;;;2.13;;
43337;SDS011;28933;52.492;13.434;2022-09-27T05:10:48;2.92;;;1.90;;
43337;SDS011;28933;52.492;13.434;2022-09-27T05:13:13;3.15;;;2.25;;
43337;SDS011;28933;52.492;13.434;2022-09-27T05:15:40;3.28;;;1.63;;
43337;SDS011;28933;52.492;13.434;2022-09-27T05:18:06;3.30;;;2.30;;
43337;SDS011;28933;52.492;13.434;2022-09-27T05:20:35;4.22;;;2.22;;
43337;SDS011;28933;52.492;13.434;2022-09-27T05:23:01;4.25;;;2.20;;
43337;SDS011;28933;52.492;13.434;2022-09-27T05:25:28;2.50;;;2.00;;
43337;SDS011;28933;52.492;13.434;2022-09-27T05:27:55;3.53;;;1.85;;
43337;SDS011;28933;52.492;13.434;2022-09-27T05:30:21;5.60;;;2.45;;
43337;SDS011;28933;52.492;13.434;2022-09-27T05:32:47;2.88;;;2.25;;
43337;SDS011;28933;52.492;13.434;2022-09-27T05:35:14;2.88;;;2.13;;
43337;SDS011;28933;52.492;13.434;2022-09-27T05:37:42;3.83;;;2.00;;
43337;SDS011;28933;52.492;13.434;2022-09-27T05:40:08;3.03;;;2.00;;
43337;SDS011;28933;52.492;13.434;2022-09-27T05:42:33;3.40;;;2.28;;
43337;SDS011;28933;52.492;13.434;2022-09-27T05:45:03;2.85;;;2.17;;
43337;SDS011;28933;52.492;13.434;2022-09-27T05:47:31;4.53;;;2.15;;
43337;SDS011;28933;52.492;13.434;2022-09-27T05:49:57;3.10;;;2.03;;
43337;SDS011;28933;52.492;13.434;2022-09-27T05:52:23;3.90;;;2.22;;
43337;SDS011;28933;52.492;13.434;2022-09-27T05:54:49;2.67;;;2.10;;
43337;SDS011;28933;52.492;13.434;2022-09-27T05:57:15;2.95;;;1.90;;
43337;SDS011;28933;52.492;13.434;2022-09-27T05:59:40;6.38;;;2.20;;
43337;SDS011;28933;52.492;13.434;2022-09-27T06:02:07;3.80;;;1.77;;
43337;SDS011;28933;52.492;13.434;2022-09-27T06:04:37;4.00;;;2.13;;
43337;SDS011;28933;52.492;13.434;2022-09-27T06:07:03;7.82;;;2.60;;
43337;SDS011;28933;52.492;13.434;2022-09-27T06:09:29;4.95;;;2.92;;
43337;SDS011;28933;52.492;13.434;2022-09-27T06:11:56;3.22;;;2.25;;
43337;SDS011;28933;52.492;13.434;2022-09-27T06:14:22;3.15;;;2.10;;
43337;SDS011;28933;52.492;13.434;2022-09-27T06:16:47;5.85;;;2.25;;
43337;SDS011;28933;52.492;13.434;2022-09-27T06:19:13;4.50;;;2.22;;
43337;SDS011;28933;52.492;13.434;2022-09-27T06:21:39;4.97;;;2.28;;
43337;SDS011;28933;52.492;13.434;2022-09-27T06:24:05;2.92;;;2.10;;
43337;SDS011;28933;52.492;13.434;2022-09-27T06:26:31;3.15;;;2.47;;
43337;SDS011;28933;52.492;13.434;2022-09-27T06:28:57;4.60;;;2.80;;
43337;SDS011;28933;52.492;13.434;2022-09-27T06:31:23;4.85;;;2.33;;
43337;SDS011;28933;52.492;13.434;2022-09-27T06:33:49;4.43;;;2.50;;
43337;SDS011;28933;52.492;13.434;2022-09-27T06:36:14;5.57;;;2.38;;
43337;SDS011;28933;52.492;13.434;2022-09-27T06:38:40;4.95;;;2.50;;
43337;SDS011;28933;52.492;13.434;2022-09-27T06:41:06;4.60;;;2.70;;
43337;SDS011;28933;52.492;13.434;2022-09-27T06:43:32;7.35;;;2.50;;
43337;SDS011;28933;52.492;13.434;2022-09-27T06:46:02;4.00;;;2.30;;
43337;SDS011;28933;52.492;13.434;2022-09-27T06:48:28;6.22;;;2.50;;
43337;SDS011;28933;52.492;13.434;2022-09-27T06:50:55;4.40;;;2.50;;
43337;SDS011;28933;52.492;13.434;2022-09-27T06:53:22;4.15;;;2.60;;
43337;SDS011;28933;52.492;13.434;2022-09-27T06:55:48;8.90;;;3.03;;
43337;SDS011;28933;52.492;13.434;2022-09-27T06:58:15;4.00;;;2.70;;
43337;SDS011;28933;52.492;13.434;2022-09-27T07:01:00;5.00;;;3.10;;
43337;SDS011;28933;52.492;13.434;2022-09-27T07:03:26;5.47;;;2.60;;
43337;SDS011;28933;52.492;13.434;2022-09-27T07:06:00;4.47;;;2.78;;
43337;SDS011;28933;52.492;13.434;2022-09-27T07:08:27;4.00;;;2.67;;
43337;SDS011;28933;52.492;13.434;2022-09-27T07:11:04;8.52;;;2.75;;
43337;SDS011;28933;52.492;13.434;2022-09-27T07:13:31;4.88;;;3.03;;
43337;SDS011;28933;52.492;13.434;2022-09-27T07:16:01;3.67;;;2.78;;
43337;SDS011;28933;52.492;13.434;2022-09-27T07:18:27;5.28;;;2.75;;
43337;SDS011;28933;52.492;13.434;2022-09-27T07:20:53;6.88;;;3.78;;
43337;SDS011;28933;52.492;13.434;2022-09-27T07:23:19;5.97;;;3.10;;
43337;SDS011;28933;52.492;13.434;2022-09-27T07:25:45;4.68;;;2.97;;
43337;SDS011;28933;52.492;13.434;2022-09-27T07:28:15;7.05;;;3.08;;
43337;SDS011;28933;52.492;13.434;2022-09-27T07:30:42;4.20;;;3.15;;
43337;SDS011;28933;52.492;13.434;2022-09-27T07:33:08;5.53;;;3.08;;
43337;SDS011;28933;52.492;13.434;2022-09-27T07:35:39;3.85;;;3.00;;
43337;SDS011;28933;52.492;13.434;2022-09-27T07:38:05;4.75;;;2.90;;
43337;SDS011;28933;52.492;13.434;2022-09-27T07:40:35;5.00;;;3.08;;
43337;SDS011;28933;52.492;13.434;2022-09-27T07:43:02;4.95;;;3.30;;
43337;SDS011;28933;52.492;13.434;2022-09-27T07:45:28;4.05;;;2.83;;
43337;SDS011;28933;52.492;13.434;2022-09-27T07:47:55;5.85;;;2.85;;
43337;SDS011;28933;52.492;13.434;2022-09-27T07:50:21;6.35;;;3.25;;
43337;SDS011;28933;52.492;13.434;2022-09-27T07:52:47;7.38;;;3.17;;
43337;SDS011;28933;52.492;13.434;2022-09-27T07:55:17;4.03;;;2.40;;
43337;SDS011;28933;52.492;13.434;2022-09-27T07:57:43;7.20;;;2.85;;
43337;SDS011;28933;52.492;13.434;2022-09-27T08:00:13;6.35;;;3.08;;
43337;SDS011;28933;52.492;13.434;2022-09-27T08:02:41;5.13;;;3.03;;
43337;SDS011;28933;52.492;13.434;2022-09-27T08:05:07;5.45;;;2.72;;
43337;SDS011;28933;52.492;13.434;2022-09-27T08:07:34;4.55;;;2.70;;
43337;SDS011;28933;52.492;13.434;2022-09-27T08:10:00;7.45;;;3.10;;
43337;SDS011;28933;52.492;13.434;2022-09-27T08:12:27;5.03;;;2.78;;
43337;SDS011;28933;52.492;13.434;2022-09-27T08:14:52;7.63;;;2.85;;
43337;SDS011;28933;52.492;13.434;2022-09-27T08:17:21;5.25;;;2.72;;
43337;SDS011;28933;52.492;13.434;2022-09-27T08:19:46;5.68;;;2.67;;
43337;SDS011;28933;52.492;13.434;2022-09-27T08:22:14;3.33;;;2.30;;
43337;SDS011;28933;52.492;13.434;2022-09-27T08:24:40;3.67;;;2.47;;
43337;SDS011;28933;52.492;13.434;2022-09-27T08:27:06;7.20;;;3.67;;
43337;SDS011;28933;52.492;13.434;2022-09-27T08:29:33;3.20;;;2.40;;
43337;SDS011;28933;52.492;13.434;2022-09-27T08:31:59;3.33;;;2.35;;
43337;SDS011;28933;52.492;13.434;2022-09-27T08:34:24;3.40;;;2.42;;
43337;SDS011;28933;52.492;13.434;2022-09-27T08:36:52;5.65;;;2.50;;
43337;SDS011;28933;52.492;13.434;2022-09-27T08:39:19;3.78;;;2.20;;
43337;SDS011;28933;52.492;13.434;2022-09-27T08:44:26;3.80;;;2.00;;
43337;SDS011;28933;52.492;13.434;2022-09-27T08:47:15;2.72;;;1.88;;
43337;SDS011;28933;52.492;13.434;2022-09-27T08:49:46;12.93;;;3.50;;
43337;SDS011;28933;52.492;13.434;2022-09-27T08:52:19;4.78;;;2.70;;
43337;SDS011;28933;52.492;13.434;2022-09-27T08:54:51;5.07;;;2.47;;
43337;SDS011;28933;52.492;13.434;2022-09-27T08:57:19;8.02;;;2.72;;
43337;SDS011;28933;52.492;13.434;2022-09-27T09:02:28;4.13;;;2.22;;
43337;SDS011;28933;52.492;13.434;2022-09-27T09:04:55;7.18;;;2.63;;
43337;SDS011;28933;52.492;13.434;2022-09-27T09:07:51;5.00;;;2.08;;
43337;SDS011;28933;52.492;13.434;2022-09-27T09:10:25;3.88;;;2.40;;
43337;SDS011;28933;52.492;13.434;2022-09-27T09:13:40;5.25;;;2.33;;
43337;SDS011;28933;52.492;13.434;2022-09-27T09:27:57;4.88;;;2.53;;
43337;SDS011;28933;52.492;13.434;2022-09-27T09:30:24;3.22;;;2.15;;
43337;SDS011;28933;52.492;13.434;2022-09-27T09:33:21;3.30;;;2.13;;
43337;SDS011;28933;52.492;13.434;2022-09-27T09:38:20;4.43;;;2.20;;
43337;SDS011;28933;52.492;13.434;2022-09-27T09:41:51;4.50;;;2.47;;
43337;SDS011;28933;52.492;13.434;2022-09-27T09:46:49;3.38;;;2.30;;
43337;SDS011;28933;52.492;13.434;2022-09-27T09:49:28;3.75;;;2.08;;
43337;SDS011;28933;52.492;13.434;2022-09-27T09:51:59;4.72;;;2.17;;
43337;SDS011;28933;52.492;13.434;2022-09-27T09:54:34;6.25;;;2.30;;
43337;SDS011;28933;52.492;13.434;2022-09-27T10:02:37;3.95;;;2.30;;
43337;SDS011;28933;52.492;13.434;2022-09-27T10:05:06;3.20;;;2.40;;
43337;SDS011;28933;52.492;13.434;2022-09-27T10:07:39;5.03;;;2.60;;
43337;SDS011;28933;52.492;13.434;2022-09-27T10:10:06;2.80;;;2.28;;
43337;SDS011;28933;52.492;13.434;2022-09-27T10:12:35;3.55;;;2.35;;
43337;SDS011;28933;52.492;13.434;2022-09-27T10:15:02;3.95;;;2.38;;
43337;SDS011;28933;52.492;13.434;2022-09-27T10:17:40;5.97;;;2.40;;
43337;SDS011;28933;52.492;13.434;2022-09-27T10:20:14;4.18;;;2.70;;
43337;SDS011;28933;52.492;13.434;2022-09-27T10:22:52;7.05;;;2.95;;
43337;SDS011;28933;52.492;13.434;2022-09-27T10:25:23;5.40;;;2.50;;
43337;SDS011;28933;52.492;13.434;2022-09-27T10:27:49;4.38;;;2.50;;
43337;SDS011;28933;52.492;13.434;2022-09-27T10:32:50;3.80;;;2.40;;
43337;SDS011;28933;52.492;13.434;2022-09-27T10:37:45;3.33;;;2.45;;
43337;SDS011;28933;52.492;13.434;2022-09-27T10:40:27;5.72;;;2.47;;
43337;SDS011;28933;52.492;13.434;2022-09-27T10:42:54;3.42;;;2.30;;
43337;SDS011;28933;52.492;13.434;2022-09-27T10:45:30;3.85;;;2.55;;
43337;SDS011;28933;52.492;13.434;2022-09-27T10:48:00;6.20;;;2.80;;
43337;SDS011;28933;52.492;13.434;2022-09-27T10:50:27;3.55;;;2.60;;
43337;SDS011;28933;52.492;13.434;2022-09-27T10:53:14;4.22;;;2.20;;
43337;SDS011;28933;52.492;13.434;2022-09-27T10:55:48;3.35;;;2.25;;
43337;SDS011;28933;52.492;13.434;2022-09-27T10:58:32;2.53;;;2.03;;
43337;SDS011;28933;52.492;13.434;2022-09-27T11:01:01;3.30;;;2.10;;
43337;SDS011;28933;52.492;13.434;2022-09-27T11:03:29;5.15;;;2.92;;
43337;SDS011;28933;52.492;13.434;2022-09-27T11:05:57;3.20;;;2.00;;
43337;SDS011;28933;52.492;13.434;2022-09-27T11:11:05;2.88;;;2.30;;
43337;SDS011;28933;52.492;13.434;2022-09-27T11:13:35;6.40;;;2.67;;
43337;SDS011;28933;52.492;13.434;2022-09-27T11:16:05;4.32;;;2.30;;
43337;SDS011;28933;52.492;13.434;2022-09-27T11:21:50;4.07;;;2.13;;
43337;SDS011;28933;52.492;13.434;2022-09-27T11:30:13;6.25;;;3.35;;
43337;SDS011;28933;52.492;13.434;2022-09-27T11:46:31;5.10;;;2.28;;
43337;SDS011;28933;52.492;13.434;2022-09-27T11:51:51;4.97;;;2.60;;
43337;SDS011;28933;52.492;13.434;2022-09-27T12:03:36;2.75;;;1.27;;
43337;SDS011;28933;52.492;13.434;2022-09-27T12:06:20;3.33;;;1.42;;
43337;SDS011;28933;52.492;13.434;2022-09-27T12:09:09;3.53;;;1.40;;
43337;SDS011;28933;52.492;13.434;2022-09-27T12:11:42;2.47;;;1.42;;
43337;SDS011;28933;52.492;13.434;2022-09-27T12:14:23;2.13;;;1.20;;
43337;SDS011;28933;52.492;13.434;2022-09-27T12:16:52;1.90;;;1.30;;
43337;SDS011;28933;52.492;13.434;2022-09-27T12:19:24;4.30;;;1.80;;
43337;SDS011;28933;52.492;13.434;2022-09-27T12:21:55;3.85;;;1.88;;
43337;SDS011;28933;52.492;13.434;2022-09-27T12:24:23;4.25;;;1.98;;
43337;SDS011;28933;52.492;13.434;2022-09-27T12:26:50;3.78;;;2.08;;
43337;SDS011;28933;52.492;13.434;2022-09-27T12:31:59;5.85;;;2.38;;
43337;SDS011;28933;52.492;13.434;2022-09-27T12:34:36;3.58;;;2.03;;
43337;SDS011;28933;52.492;13.434;2022-09-27T12:40:28;3.25;;;2.08;;
43337;SDS011;28933;52.492;13.434;2022-09-27T12:43:04;3.03;;;1.77;;
43337;SDS011;28933;52.492;13.434;2022-09-27T12:51:08;2.90;;;1.70;;
43337;SDS011;28933;52.492;13.434;2022-09-27T13:01:57;2.67;;;1.90;;
43337;SDS011;28933;52.492;13.434;2022-09-27T13:07:25;5.10;;;2.40;;
43337;SDS011;28933;52.492;13.434;2022-09-27T13:12:48;3.53;;;2.13;;
43337;SDS011;28933;52.492;13.434;2022-09-27T13:15:18;3.00;;;2.15;;
43337;SDS011;28933;52.492;13.434;2022-09-27T13:17:53;2.97;;;2.05;;
43337;SDS011;28933;52.492;13.434;2022-09-27T13:23:00;3.85;;;1.70;;
43337;SDS011;28933;52.492;13.434;2022-09-27T13:25:49;2.38;;;1.52;;
43337;SDS011;28933;52.492;13.434;2022-09-27T13:33:43;2.78;;;1.90;;
43337;SDS011;28933;52.492;13.434;2022-09-27T13:46:51;3.65;;;2.20;;
43337;SDS011;28933;52.492;13.434;2022-09-27T13:49:32;3.72;;;2.15;;
43337;SDS011;28933;52.492;13.434;2022-09-27T13:52:02;3.08;;;2.25;;
43337;SDS011;28933;52.492;13.434;2022-09-27T13:54:54;2.33;;;1.85;;
43337;SDS011;28933;52.492;13.434;2022-09-27T14:05:50;5.50;;;2.08;;
43337;SDS011;28933;52.492;13.434;2022-09-27T14:08:42;4.10;;;2.17;;
43337;SDS011;28933;52.492;13.434;2022-09-27T14:11:13;4.13;;;2.20;;
43337;SDS011;28933;52.492;13.434;2022-09-27T14:13:42;3.85;;;2.00;;
43337;SDS011;28933;52.492;13.434;2022-09-27T14:16:12;2.72;;;2.10;;
43337;SDS011;28933;52.492;13.434;2022-09-27T14:18:44;2.60;;;2.13;;
43337;SDS011;28933;52.492;13.434;2022-09-27T14:23:50;4.55;;;2.00;;
43337;SDS011;28933;52.492;13.434;2022-09-27T14:26:26;2.47;;;1.75;;
43337;SDS011;28933;52.492;13.434;2022-09-27T14:28:52;3.00;;;1.83;;
43337;SDS011;28933;52.492;13.434;2022-09-27T14:31:19;2.92;;;2.13;;
43337;SDS011;28933;52.492;13.434;2022-09-27T14:33:47;2.53;;;1.70;;
43337;SDS011;28933;52.492;13.434;2022-09-27T14:36:35;3.00;;;1.90;;
43337;SDS011;28933;52.492;13.434;2022-09-27T14:39:23;3.63;;;1.70;;
43337;SDS011;28933;52.492;13.434;2022-09-27T14:41:57;2.75;;;1.60;;
43337;SDS011;28933;52.492;13.434;2022-09-27T14:44:24;2.35;;;1.45;;
43337;SDS011;28933;52.492;13.434;2022-09-27T14:47:06;2.42;;;1.40;;
43337;SDS011;28933;52.492;13.434;2022-09-27T14:49:34;2.53;;;1.60;;
43337;SDS011;28933;52.492;13.434;2022-09-27T14:51:59;2.15;;;1.60;;
43337;SDS011;28933;52.492;13.434;2022-09-27T14:54:26;2.95;;;1.58;;
43337;SDS011;28933;52.492;13.434;2022-09-27T14:56:56;2.88;;;1.70;;
43337;SDS011;28933;52.492;13.434;2022-09-27T14:59:25;2.30;;;1.80;;
43337;SDS011;28933;52.492;13.434;2022-09-27T15:01:57;6.93;;;1.77;;
43337;SDS011;28933;52.492;13.434;2022-09-27T15:04:28;3.53;;;1.70;;
43337;SDS011;28933;52.492;13.434;2022-09-27T15:06:59;2.72;;;1.70;;
43337;SDS011;28933;52.492;13.434;2022-09-27T15:09:26;3.78;;;2.22;;
43337;SDS011;28933;52.492;13.434;2022-09-27T15:11:53;4.97;;;3.30;;
43337;SDS011;28933;52.492;13.434;2022-09-27T15:14:22;3.92;;;2.58;;
43337;SDS011;28933;52.492;13.434;2022-09-27T15:16:50;4.07;;;2.50;;
43337;SDS011;28933;52.492;13.434;2022-09-27T15:21:43;5.82;;;2.80;;
43337;SDS011;28933;52.492;13.434;2022-09-27T15:24:52;4.93;;;3.33;;
43337;SDS011;28933;52.492;13.434;2022-09-27T15:27:01;5.93;;;2.67;;
43337;SDS011;28933;52.492;13.434;2022-09-27T15:29:28;5.68;;;2.92;;
43337;SDS011;28933;52.492;13.434;2022-09-27T15:32:03;5.88;;;3.03;;
43337;SDS011;28933;52.492;13.434;2022-09-27T15:34:31;4.97;;;2.97;;
43337;SDS011;28933;52.492;13.434;2022-09-27T15:37:02;7.45;;;3.30;;
43337;SDS011;28933;52.492;13.434;2022-09-27T15:39:36;5.25;;;3.30;;
43337;SDS011;28933;52.492;13.434;2022-09-27T15:42:05;8.23;;;4.07;;
43337;SDS011;28933;52.492;13.434;2022-09-27T15:49:58;5.13;;;3.22;;
43337;SDS011;28933;52.492;13.434;2022-09-27T15:52:45;3.60;;;2.63;;
43337;SDS011;28933;52.492;13.434;2022-09-27T15:55:14;5.05;;;3.20;;
43337;SDS011;28933;52.492;13.434;2022-09-27T15:57:48;5.55;;;3.17;;
43337;SDS011;28933;52.492;13.434;2022-09-27T16:00:19;6.15;;;3.20;;
43337;SDS011;28933;52.492;13.434;2022-09-27T16:02:45;4.70;;;3.20;;
43337;SDS011;28933;52.492;13.434;2022-09-27T16:05:11;4.00;;;2.63;;
43337;SDS011;28933;52.492;13.434;2022-09-27T16:07:38;4.63;;;3.20;;
43337;SDS011;28933;52.492;13.434;2022-09-27T16:12:44;4.05;;;2.45;;
43337;SDS011;28933;52.492;13.434;2022-09-27T16:15:10;4.93;;;2.20;;
43337;SDS011;28933;52.492;13.434;2022-09-27T16:17:36;2.90;;;1.75;;
43337;SDS011;28933;52.492;13.434;2022-09-27T16:20:04;2.58;;;1.85;;
43337;SDS011;28933;52.492;13.434;2022-09-27T16:22:30;3.15;;;1.75;;
43337;SDS011;28933;52.492;13.434;2022-09-27T16:24:56;2.80;;;1.75;;
43337;SDS011;28933;52.492;13.434;2022-09-27T16:27:25;3.10;;;1.65;;
43337;SDS011;28933;52.492;13.434;2022-09-27T16:29:52;2.15;;;1.80;;
43337;SDS011;28933;52.492;13.434;2022-09-27T16:32:18;4.85;;;2.50;;
43337;SDS011;28933;52.492;13.434;2022-09-27T16:34:45;4.72;;;2.63;;
43337;SDS011;28933;52.492;13.434;2022-09-27T16:37:11;3.92;;;2.75;;
43337;SDS011;28933;52.492;13.434;2022-09-27T16:39:36;6.43;;;2.90;;
43337;SDS011;28933;52.492;13.434;2022-09-27T16:42:03;5.28;;;3.20;;
43337;SDS011;28933;52.492;13.434;2022-09-27T16:44:30;5.57;;;3.45;;
43337;SDS011;28933;52.492;13.434;2022-09-27T16:47:00;3.95;;;2.67;;
43337;SDS011;28933;52.492;13.434;2022-09-27T16:49:26;4.50;;;3.25;;
43337;SDS011;28933;52.492;13.434;2022-09-27T16:54:38;5.65;;;3.50;;
43337;SDS011;28933;52.492;13.434;2022-09-27T16:57:04;6.05;;;4.30;;
43337;SDS011;28933;52.492;13.434;2022-09-27T16:59:30;5.78;;;3.72;;
43337;SDS011;28933;52.492;13.434;2022-09-27T17:01:56;6.68;;;4.13;;
43337;SDS011;28933;52.492;13.434;2022-09-27T17:04:25;5.10;;;3.60;;
43337;SDS011;28933;52.492;13.434;2022-09-27T17:06:52;5.05;;;3.40;;
43337;SDS011;28933;52.492;13.434;2022-09-27T17:09:19;3.95;;;3.10;;
43337;SDS011;28933;52.492;13.434;2022-09-27T17:11:45;4.93;;;3.10;;
43337;SDS011;28933;52.492;13.434;2022-09-27T17:14:11;3.75;;;2.70;;
43337;SDS011;28933;52.492;13.434;2022-09-27T17:16:41;4.43;;;2.67;;
43337;SDS011;28933;52.492;13.434;2022-09-27T17:19:08;3.90;;;2.80;;
43337;SDS011;28933;52.492;13.434;2022-09-27T17:21:35;4.72;;;2.88;;
43337;SDS011;28933;52.492;13.434;2022-09-27T17:24:02;2.83;;;2.13;;
43337;SDS011;28933;52.492;13.434;2022-09-27T17:26:29;5.05;;;2.80;;
43337;SDS011;28933;52.492;13.434;2022-09-27T17:28:56;4.38;;;2.50;;
43337;SDS011;28933;52.492;13.434;2022-09-27T17:31:23;3.97;;;2.78;;
43337;SDS011;28933;52.492;13.434;2022-09-27T17:33:50;4.93;;;2.60;;
43337;SDS011;28933;52.492;13.434;2022-09-27T17:36:17;3.78;;;2.60;;
43337;SDS011;28933;52.492;13.434;2022-09-27T17:38:46;3.85;;;2.47;;
43337;SDS011;28933;52.492;13.434;2022-09-27T17:41:14;2.63;;;2.13;;
43337;SDS011;28933;52.492;13.434;2022-09-27T17:43:42;3.83;;;2.22;;
43337;SDS011;28933;52.492;13.434;2022-09-27T17:46:25;4.18;;;2.60;;
43337;SDS011;28933;52.492;13.434;2022-09-27T17:48:59;4.18;;;2.40;;
43337;SDS011;28933;52.492;13.434;2022-09-27T17:52:05;3.47;;;2.30;;
43337;SDS011;28933;52.492;13.434;2022-09-27T17:54:32;6.10;;;3.00;;
43337;SDS011;28933;52.492;13.434;2022-09-27T17:56:57;4.65;;;2.95;;